Time;durP1;ratioP1;P1;durP2;ratioP2;P2;SDS_P1;SDS_P2;PMS_P1;PMS_P2;Temp;Humidity;BMP_temperature;BMP_pressure;BME280_temperature;BME280_humidity;BME280_pressure;Samples;Min_cycle;Max_cycle;Signal;HPM_P1;HPM_P2
2020/01/31 00:01:58;;;;;;;9;5.4;;;;;;;;;;;;;
2020/01/31 00:04:24;;;;;;;6.9;3.6;;;;;;;;;;;;;
2020/01/31 00:09:38;;;;;;;5.4;3.7;;;;;;;;;;;;;
2020/01/31 00:11:51;;;;;;;4.7;2.9;;;;;;;;;;;;;
2020/01/31 00:14:22;;;;;;;5.2;3;;;;;;;;;;;;;
2020/01/31 00:17:29;;;;;;;3;2.5;;;;;;;;;;;;;
2020/01/31 00:20:00;;;;;;;2.9;1.7;;;;;;;;;;;;;
2020/01/31 00:22:28;;;;;;;3.4;1.6;;;;;;;;;;;;;
2020/01/31 00:24:54;;;;;;;2.4;1.6;;;;;;;;;;;;;
2020/01/31 00:27:19;;;;;;;2.5;1.7;;;;;;;;;;;;;
2020/01/31 00:29:45;;;;;;;2.4;1.7;;;;;;;;;;;;;
2020/01/31 00:32:10;;;;;;;3.3;1.6;;;;;;;;;;;;;
2020/01/31 00:34:37;;;;;;;3.2;2.1;;;;;;;;;;;;;
2020/01/31 00:37:01;;;;;;;2.7;2;;;;;;;;;;;;;
2020/01/31 00:39:29;;;;;;;3.8;2.5;;;;;;;;;;;;;
2020/01/31 00:42:04;;;;;;;3.3;2;;;;;;;;;;;;;
2020/01/31 00:44:19;;;;;;;4.7;3.1;;;;;;;;;;;;;
2020/01/31 00:46:42;;;;;;;5.2;3;;;;;;;;;;;;;
2020/01/31 00:49:13;;;;;;;4.3;2.2;;;;;;;;;;;;;
2020/01/31 00:51:37;;;;;;;3.2;2.4;;;;;;;;;;;;;
2020/01/31 00:53:59;;;;;;;3.3;2.1;;;;;;;;;;;;;
2020/01/31 00:56:23;;;;;;;3.2;2.4;;;;;;;;;;;;;
2020/01/31 00:58:54;;;;;;;2.7;1.9;;;;;;;;;;;;;
2020/01/31 01:01:28;;;;;;;2.1;1.6;;;;;;;;;;;;;
2020/01/31 01:03:56;;;;;;;2.6;1.7;;;;;;;;;;;;;
2020/01/31 01:06:19;;;;;;;4.5;1.7;;;;;;;;;;;;;
2020/01/31 01:08:46;;;;;;;2.2;1.3;;;;;;;;;;;;;
2020/01/31 01:11:15;;;;;;;2.5;1.3;;;;;;;;;;;;;
2020/01/31 01:13:40;;;;;;;1.7;0.9;;;;;;;;;;;;;
2020/01/31 01:16:14;;;;;;;2;0.9;;;;;;;;;;;;;
2020/01/31 01:18:31;;;;;;;1.5;0.9;;;;;;;;;;;;;
2020/01/31 01:20:56;;;;;;;1.1;0.8;;;;;;;;;;;;;
2020/01/31 01:23:22;;;;;;;1.2;0.8;;;;;;;;;;;;;
2020/01/31 01:25:56;;;;;;;1.9;0.8;;;;;;;;;;;;;
2020/01/31 01:28:41;;;;;;;1.3;0.8;;;;;;;;;;;;;
2020/01/31 01:33:19;;;;;;;1.4;0.8;;;;;;;;;;;;;
2020/01/31 01:35:41;;;;;;;1;0.8;;;;;;;;;;;;;
2020/01/31 01:38:05;;;;;;;0.9;0.6;;;;;;;;;;;;;
2020/01/31 01:41:11;;;;;;;1.7;1.1;;;;;;;;;;;;;
2020/01/31 01:43:33;;;;;;;2.5;1.7;;;;;;;;;;;;;
2020/01/31 01:45:59;;;;;;;1.9;1.4;;;;;;;;;;;;;
2020/01/31 01:48:25;;;;;;;2.1;1.2;;;;;;;;;;;;;
2020/01/31 01:51:01;;;;;;;2.1;1.3;;;;;;;;;;;;;
2020/01/31 01:53:26;;;;;;;2;1.4;;;;;;;;;;;;;
2020/01/31 01:55:50;;;;;;;2;1.4;;;;;;;;;;;;;
2020/01/31 01:58:16;;;;;;;1.6;1.4;;;;;;;;;;;;;
2020/01/31 02:00:42;;;;;;;1.8;1.5;;;;;;;;;;;;;
2020/01/31 02:03:06;;;;;;;2.3;1.9;;;;;;;;;;;;;
2020/01/31 02:05:30;;;;;;;4;2.5;;;;;;;;;;;;;
2020/01/31 02:07:56;;;;;;;2.8;2.3;;;;;;;;;;;;;
2020/01/31 02:10:24;;;;;;;2.8;2.2;;;;;;;;;;;;;
2020/01/31 02:12:47;;;;;;;2.6;2.1;;;;;;;;;;;;;
2020/01/31 02:15:14;;;;;;;2.2;1.7;;;;;;;;;;;;;
2020/01/31 02:17:42;;;;;;;2;1.4;;;;;;;;;;;;;
2020/01/31 02:20:04;;;;;;;1.4;1.2;;;;;;;;;;;;;
2020/01/31 02:22:31;;;;;;;1.4;0.9;;;;;;;;;;;;;
2020/01/31 02:24:58;;;;;;;1.2;0.9;;;;;;;;;;;;;
2020/01/31 02:27:24;;;;;;;1.4;0.9;;;;;;;;;;;;;
2020/01/31 02:29:47;;;;;;;1;0.7;;;;;;;;;;;;;
2020/01/31 02:32:31;;;;;;;1.4;0.9;;;;;;;;;;;;;
2020/01/31 02:34:54;;;;;;;0.8;0.8;;;;;;;;;;;;;
2020/01/31 02:37:25;;;;;;;1.3;0.9;;;;;;;;;;;;;
2020/01/31 02:39:49;;;;;;;5;3.2;;;;;;;;;;;;;
2020/01/31 02:42:23;;;;;;;1.5;0.7;;;;;;;;;;;;;
2020/01/31 02:44:42;;;;;;;0.8;0.8;;;;;;;;;;;;;
2020/01/31 02:47:07;;;;;;;2.5;1.1;;;;;;;;;;;;;
2020/01/31 02:49:32;;;;;;;1.7;0.9;;;;;;;;;;;;;
2020/01/31 02:52:04;;;;;;;1.5;0.9;;;;;;;;;;;;;
2020/01/31 02:54:33;;;;;;;1;0.8;;;;;;;;;;;;;
2020/01/31 02:58:30;;;;;;;1.1;0.6;;;;;;;;;;;;;
2020/01/31 03:00:58;;;;;;;0.7;0.6;;;;;;;;;;;;;
2020/01/31 03:03:19;;;;;;;1.5;0.6;;;;;;;;;;;;;
2020/01/31 03:05:46;;;;;;;0.8;0.7;;;;;;;;;;;;;
2020/01/31 03:08:10;;;;;;;1.4;0.6;;;;;;;;;;;;;
2020/01/31 03:10:34;;;;;;;0.9;0.6;;;;;;;;;;;;;
2020/01/31 03:13:01;;;;;;;0.6;0.5;;;;;;;;;;;;;
2020/01/31 03:15:26;;;;;;;1.3;0.6;;;;;;;;;;;;;
2020/01/31 03:17:50;;;;;;;1.3;0.7;;;;;;;;;;;;;
2020/01/31 03:20:15;;;;;;;0.5;0.5;;;;;;;;;;;;;
2020/01/31 03:22:45;;;;;;;0.8;0.6;;;;;;;;;;;;;
2020/01/31 03:25:08;;;;;;;0.7;0.6;;;;;;;;;;;;;
2020/01/31 03:27:33;;;;;;;1.3;0.7;;;;;;;;;;;;;
2020/01/31 03:29:59;;;;;;;1.7;0.6;;;;;;;;;;;;;
2020/01/31 03:32:23;;;;;;;1.4;0.7;;;;;;;;;;;;;
2020/01/31 03:34:48;;;;;;;0.6;0.6;;;;;;;;;;;;;
2020/01/31 03:37:13;;;;;;;1;0.8;;;;;;;;;;;;;
2020/01/31 03:39:40;;;;;;;1.4;1;;;;;;;;;;;;;
2020/01/31 03:42:09;;;;;;;3.3;1.5;;;;;;;;;;;;;
2020/01/31 03:44:36;;;;;;;2.5;1.1;;;;;;;;;;;;;
2020/01/31 03:47:01;;;;;;;2;1.1;;;;;;;;;;;;;
2020/01/31 03:49:25;;;;;;;4;1.6;;;;;;;;;;;;;
2020/01/31 03:51:50;;;;;;;3.5;1.8;;;;;;;;;;;;;
2020/01/31 03:54:20;;;;;;;3.1;1.5;;;;;;;;;;;;;
2020/01/31 03:56:43;;;;;;;3.9;1.6;;;;;;;;;;;;;
2020/01/31 03:59:07;;;;;;;1.9;1;;;;;;;;;;;;;
2020/01/31 04:02:42;;;;;;;2.4;1;;;;;;;5.89;88.55273;934.7595;;;;
2020/01/31 04:05:14;;;;;;;2;0.9;;;;;;;6.05;88.20215;934.8063;;;;
2020/01/31 04:07:45;;;;;;;1.4;0.9;;;;;;;5.99;88.36816;934.7389;;;;
2020/01/31 04:10:20;;;;;;;3;0.9;;;;;;;5.92;88.45703;934.7683;;;;
2020/01/31 04:12:55;;;;;;;1.2;0.8;;;;;;;5.94;89.07227;934.9253;;;;
2020/01/31 04:15:26;;;;;;;0.6;0.6;;;;;;;6.06;88.09082;934.7612;;;;
2020/01/31 04:17:53;;;;;;;1.4;0.9;;;;;;;5.68;89.86426;934.8353;;;;
2020/01/31 04:20:24;;;;;;;1.9;0.8;;;;;;;5.67;90.5498;934.7742;;;;
2020/01/31 04:22:56;;;;;;;1.9;0.7;;;;;;;5.7;90.10352;934.7811;;;;
2020/01/31 04:25:27;;;;;;;1.2;1.1;;;;;;;5.83;89.96289;934.7756;;;;
2020/01/31 04:27:58;;;;;;;1;0.8;;;;;;;5.74;90.62109;934.6809;;;;
2020/01/31 04:30:25;;;;;;;1;0.9;;;;;;;5.76;90.24121;934.7612;;;;
2020/01/31 04:32:53;;;;;;;1.3;0.9;;;;;;;5.9;89.22168;934.7805;;;;
2020/01/31 04:35:19;;;;;;;1.3;1;;;;;;;5.48;90.36426;934.8677;;;;
2020/01/31 04:37:50;;;;;;;1.9;1;;;;;;;5.69;89.24609;934.6886;;;;
2020/01/31 04:40:21;;;;;;;2.2;1;;;;;;;5.46;90.71973;934.7527;;;;
2020/01/31 04:42:48;;;;;;;2.4;1.6;;;;;;;5.46;91.16016;934.6777;;;;
2020/01/31 04:45:20;;;;;;;2.4;1.1;;;;;;;5.73;90.13574;934.6248;;;;
2020/01/31 04:47:54;;;;;;;2.2;1.5;;;;;;;5.84;89.25488;934.4765;;;;
2020/01/31 04:50:24;;;;;;;2.4;1.2;;;;;;;5.75;89.30176;934.4711;;;;
2020/01/31 04:52:57;;;;;;;3.2;1.2;;;;;;;5.74;89.01758;934.6967;;;;
2020/01/31 04:55:29;;;;;;;1.6;1;;;;;;;5.86;88.25195;934.6711;;;;
2020/01/31 04:58:05;;;;;;;3.3;1.3;;;;;;;5.82;88.33496;934.7541;;;;
2020/01/31 05:00:39;;;;;;;1.6;0.9;;;;;;;5.76;88.89746;934.7935;;;;
2020/01/31 05:03:11;;;;;;;3;1.1;;;;;;;5.58;89.07422;934.8604;;;;
2020/01/31 05:05:42;;;;;;;0.7;0.5;;;;;;;5.65;90.13965;934.8709;;;;
2020/01/31 05:08:19;;;;;;;1;0.6;;;;;;;5.55;90.57031;934.7617;;;;
2020/01/31 05:10:47;;;;;;;1;0.9;;;;;;;5.43;92.08105;934.948;;;;
2020/01/31 05:13:21;;;;;;;1.2;0.8;;;;;;;5.8;90.18262;934.8933;;;;
2020/01/31 05:16:18;;;;;;;1.2;0.8;;;;;;;5.86;89.75391;934.9319;;;;
2020/01/31 05:18:49;;;;;;;2.6;0.9;;;;;;;5.98;89.08984;934.8755;;;;
2020/01/31 05:21:19;;;;;;;1.6;1.1;;;;;;;5.69;90.19434;935.0031;;;;
2020/01/31 05:24:17;;;;;;;3.1;1.4;;;;;;;5.98;89.88184;934.9735;;;;
2020/01/31 05:26:50;;;;;;;1.8;1.2;;;;;;;5.96;89.84473;934.9952;;;;
2020/01/31 05:29:23;;;;;;;2;1.3;;;;;;;5.97;90.94238;935.1249;;;;
2020/01/31 05:31:52;;;;;;;2.2;1.7;;;;;;;6.21;89.03613;935.1638;;;;
2020/01/31 05:34:25;;;;;;;2.8;1.3;;;;;;;6.11;89.5918;935.2562;;;;
2020/01/31 05:36:58;;;;;;;4.1;2.3;;;;;;;6.19;88.48828;935.242;;;;
2020/01/31 05:39:23;;;;;;;4.1;2.4;;;;;;;6.11;88.55273;935.1211;;;;
2020/01/31 05:41:55;;;;;;;3.2;2;;;;;;;6.14;89.29492;935.2341;;;;
2020/01/31 05:44:23;;;;;;;2;1.2;;;;;;;6.12;88.9502;935.1869;;;;
2020/01/31 05:46:48;;;;;;;2.7;1.7;;;;;;;5.93;89.89355;935.3423;;;;
2020/01/31 05:49:15;;;;;;;2.3;1.4;;;;;;;6;90.42871;935.2996;;;;
2020/01/31 05:51:57;;;;;;;8.6;4.9;;;;;;;5.85;90.62207;935.2097;;;;
2020/01/31 05:55:14;;;;;;;6.1;3.2;;;;;;;6.05;90.29102;935.3571;;;;
2020/01/31 05:57:19;;;;;;;6.3;2.9;;;;;;;6.05;90.18945;935.4281;;;;
2020/01/31 05:59:42;;;;;;;4.4;2.4;;;;;;;6.18;89.49414;935.4799;;;;
2020/01/31 06:02:15;;;;;;;3.6;2.3;;;;;;;6.05;89.88574;935.5444;;;;
2020/01/31 06:04:48;;;;;;;4.7;2.4;;;;;;;6.18;88.54492;935.5787;;;;
2020/01/31 06:07:16;;;;;;;4.7;2.4;;;;;;;6.24;89.06445;935.5352;;;;
2020/01/31 06:09:52;;;;;;;3.6;2.4;;;;;;;6.29;88.44336;935.666;;;;
2020/01/31 06:14:59;;;;;;;3.5;1.7;;;;;;;6.29;89.42676;935.5686;;;;
2020/01/31 06:17:11;;;;;;;1.7;0.7;;;;;;;6.47;89.52051;935.6493;;;;
2020/01/31 06:19:47;;;;;;;1;0.9;;;;;;;6.66;88.59863;935.6266;;;;
2020/01/31 06:22:10;;;;;;;2.5;1.7;;;;;;;6.71;88.20215;935.6473;;;;
2020/01/31 06:24:35;;;;;;;2.6;1.9;;;;;;;6.8;86.95313;935.6569;;;;
2020/01/31 06:27:05;;;;;;;4.9;2.6;;;;;;;6.6;87.43359;935.7294;;;;
2020/01/31 06:29:39;;;;;;;3.4;2.4;;;;;;;6.66;87.70508;935.693;;;;
2020/01/31 06:32:11;;;;;;;2.3;1.8;;;;;;;6.66;87.99902;935.803;;;;
2020/01/31 06:34:46;;;;;;;4.1;2.1;;;;;;;6.55;88.13477;935.8582;;;;
2020/01/31 06:37:14;;;;;;;4.4;3;;;;;;;6.71;87.625;935.8571;;;;
2020/01/31 06:39:41;;;;;;;2.2;1.5;;;;;;;6.72;88.0459;935.9553;;;;
2020/01/31 06:42:14;;;;;;;2.9;1.8;;;;;;;6.7;87.3291;936.0324;;;;
2020/01/31 06:44:43;;;;;;;3.4;1.8;;;;;;;6.64;87.37305;936.0313;;;;
2020/01/31 06:47:08;;;;;;;3;1.6;;;;;;;6.71;87.5918;935.9124;;;;
2020/01/31 06:49:33;;;;;;;2.7;1.6;;;;;;;6.74;87.42676;936.0671;;;;
2020/01/31 06:52:03;;;;;;;1.8;1.1;;;;;;;6.81;86.72852;935.9914;;;;
2020/01/31 06:54:28;;;;;;;2.9;1.3;;;;;;;6.64;87.13574;936.1713;;;;
2020/01/31 06:56:56;;;;;;;3.4;2.3;;;;;;;6.66;87.35352;936.3495;;;;
2020/01/31 06:59:23;;;;;;;3.6;2.5;;;;;;;6.68;88.47754;936.2202;;;;
2020/01/31 07:01:56;;;;;;;3.5;2.4;;;;;;;6.62;88.82715;936.2759;;;;
2020/01/31 07:04:25;;;;;;;4.4;3.5;;;;;;;6.58;87.99316;936.3143;;;;
2020/01/31 07:06:51;;;;;;;6.6;4.2;;;;;;;6.53;88.16504;936.2857;;;;
2020/01/31 07:09:21;;;;;;;6.9;4.5;;;;;;;6.56;87.68457;936.4059;;;;
2020/01/31 07:11:54;;;;;;;9.7;5.8;;;;;;;6.36;88.05078;936.4431;;;;
2020/01/31 07:14:25;;;;;;;7.2;6.1;;;;;;;6.36;89.125;936.5134;;;;
2020/01/31 07:19:42;;;;;;;8.5;5.4;;;;;;;6.41;89.28125;936.5084;;;;
2020/01/31 07:21:57;;;;;;;9.4;7.8;;;;;;;6.47;87.75684;936.4228;;;;
2020/01/31 07:24:26;;;;;;;8.6;6.4;;;;;;;6.4;88.68066;936.5396;;;;
2020/01/31 07:26:56;;;;;;;7.1;5.4;;;;;;;6.56;88.52148;936.4778;;;;
2020/01/31 07:29:26;;;;;;;7.2;4.9;;;;;;;6.59;87.92773;936.5773;;;;
2020/01/31 07:31:50;;;;;;;5.6;4;;;;;;;6.46;88.8291;936.5649;;;;
2020/01/31 07:34:22;;;;;;;6.7;4.7;;;;;;;6.59;88.51563;936.3962;;;;
2020/01/31 07:36:53;;;;;;;7.1;5.2;;;;;;;6.55;88.87012;936.4444;;;;
2020/01/31 07:39:21;;;;;;;6.9;5.4;;;;;;;6.48;89.07031;936.4783;;;;
2020/01/31 07:41:47;;;;;;;5.3;3.1;;;;;;;6.42;89.74902;936.6164;;;;
2020/01/31 07:44:15;;;;;;;4.3;2.4;;;;;;;6.86;87.63184;936.6325;;;;
2020/01/31 07:46:48;;;;;;;5.5;4.4;;;;;;;6.96;86.88281;936.5886;;;;
2020/01/31 07:49:12;;;;;;;9;5.7;;;;;;;7.14;85.79785;936.5426;;;;
2020/01/31 07:51:39;;;;;;;6.7;3.7;;;;;;;6.96;87.43945;936.5817;;;;
2020/01/31 07:54:06;;;;;;;6.1;4.3;;;;;;;7.04;87.79395;936.6183;;;;
2020/01/31 07:56:45;;;;;;;6.3;3.5;;;;;;;7.08;87.4043;936.7544;;;;
2020/01/31 08:01:49;;;;;;;4;2.3;;;;;;;7.42;85.98926;936.6847;;;;
2020/01/31 08:04:15;;;;;;;3.3;2.2;;;;;;;7.33;86.33398;936.6439;;;;
2020/01/31 08:06:46;;;;;;;4.6;2.3;;;;;;;7.58;85.3418;936.6376;;;;
2020/01/31 08:09:21;;;;;;;4.3;2.3;;;;;;;7.71;85.35547;936.6783;;;;
2020/01/31 08:11:42;;;;;;;5.1;2.1;;;;;;;7.56;85.47266;936.7679;;;;
2020/01/31 08:14:22;;;;;;;5.3;2.3;;;;;;;7.73;83.96582;936.7461;;;;
2020/01/31 08:16:47;;;;;;;3.1;2;;;;;;;7.83;84.04199;936.741;;;;
2020/01/31 08:19:10;;;;;;;4.8;2.1;;;;;;;8.06;83.51855;936.772;;;;
2020/01/31 08:21:43;;;;;;;6.8;2.6;;;;;;;8.07;83.16797;936.7745;;;;
2020/01/31 08:24:49;;;;;;;4;2;;;;;;;8.15;82.92285;936.8504;;;;
2020/01/31 08:26:52;;;;;;;5.8;2.3;;;;;;;8.04;83.77637;936.8811;;;;
2020/01/31 08:29:25;;;;;;;5.1;1.8;;;;;;;7.91;85.09961;936.9008;;;;
2020/01/31 08:31:49;;;;;;;2.6;1.3;;;;;;;7.9;85.32715;936.9736;;;;
2020/01/31 08:34:32;;;;;;;2.8;1.7;;;;;;;8.06;85.1416;936.9139;;;;
2020/01/31 08:36:51;;;;;;;3.1;1.7;;;;;;;8.05;84.70996;937.0669;;;;
2020/01/31 08:39:13;;;;;;;4.5;3.8;;;;;;;8.24;83.72363;937.0114;;;;
2020/01/31 08:41:41;;;;;;;4.4;2.3;;;;;;;8.18;84.62012;937.0666;;;;
2020/01/31 08:44:09;;;;;;;3.5;2.2;;;;;;;8.38;83.44531;937.0061;;;;
2020/01/31 08:46:33;;;;;;;2.8;2.3;;;;;;;8.18;84.34766;937.0983;;;;
2020/01/31 08:49:02;;;;;;;7.5;5.2;;;;;;;8.08;84.69336;937.0237;;;;
2020/01/31 08:51:37;;;;;;;3.5;2.2;;;;;;;7.9;85.7334;937.2328;;;;
2020/01/31 08:59:15;;;;;;;6.7;4.2;;;;;;;8.49;83.82813;937.2206;;;;
2020/01/31 09:01:59;;;;;;;6.9;3.8;;;;;;;8.59;83.44043;937.215;;;;
2020/01/31 09:04:25;;;;;;;7.9;4.1;;;;;;;8.71;82.74512;937.267;;;;
2020/01/31 09:06:57;;;;;;;7.9;4;;;;;;;8.76;82.73438;937.2941;;;;
2020/01/31 09:09:24;;;;;;;7;5.3;;;;;;;8.75;82.49219;937.3733;;;;
2020/01/31 09:11:54;;;;;;;7.5;5.1;;;;;;;9.19;81.1748;937.291;;;;
2020/01/31 09:14:12;;;;;;;10.3;5.8;;;;;;;9.05;81.74316;937.3019;;;;
2020/01/31 09:17:25;;;;;;;11.7;4.7;;;;;;;8.95;82.34961;937.3787;;;;
2020/01/31 09:19:08;;;;;;;10.3;6;;;;;;;8.96;81.85059;937.3433;;;;
2020/01/31 09:21:45;;;;;;;9.9;5.6;;;;;;;9.09;81.66992;937.3381;;;;
2020/01/31 09:24:13;;;;;;;9.8;5;;;;;;;9.58;79.81445;937.3344;;;;
2020/01/31 09:26:39;;;;;;;9.8;5.1;;;;;;;9.71;79.06445;937.4475;;;;
2020/01/31 09:29:07;;;;;;;9.8;6.3;;;;;;;10.02;77.98047;937.3455;;;;
2020/01/31 09:31:37;;;;;;;6.2;4.8;;;;;;;10.16;77.78809;937.4416;;;;
2020/01/31 09:34:18;;;;;;;8.3;4;;;;;;;10.25;78.58203;937.4095;;;;
2020/01/31 09:36:47;;;;;;;7.7;4.2;;;;;;;10.51;77.30371;937.42;;;;
2020/01/31 09:39:15;;;;;;;11.4;6.6;;;;;;;10.58;76.31152;937.3155;;;;
2020/01/31 09:41:46;;;;;;;14.8;8.1;;;;;;;10.51;76.8252;937.4814;;;;
2020/01/31 09:44:15;;;;;;;7.2;4.9;;;;;;;10.48;76.69336;937.4429;;;;
2020/01/31 09:46:47;;;;;;;8.9;5;;;;;;;10.57;76.80078;937.4691;;;;
2020/01/31 09:49:23;;;;;;;13;6.2;;;;;;;10.83;76.03613;937.3656;;;;
2020/01/31 09:51:36;;;;;;;10.5;5.9;;;;;;;10.51;76.92676;937.4089;;;;
2020/01/31 09:54:09;;;;;;;19.9;12.8;;;;;;;10.47;77.06836;937.4109;;;;
2020/01/31 09:56:33;;;;;;;20;14;;;;;;;10.3;78.32715;937.437;;;;
2020/01/31 09:59:07;;;;;;;30.9;18.5;;;;;;;10.34;78.25391;937.466;;;;
2020/01/31 10:01:42;;;;;;;21.2;15.1;;;;;;;9.98;79.11426;937.4737;;;;
2020/01/31 10:04:11;;;;;;;25.3;17.8;;;;;;;9.79;80.81152;937.4062;;;;
2020/01/31 10:06:44;;;;;;;32.8;19.7;;;;;;;9.88;80.77148;937.4695;;;;
2020/01/31 10:09:15;;;;;;;33.3;19.8;;;;;;;9.79;80.67383;937.4371;;;;
2020/01/31 10:11:39;;;;;;;32.3;20.9;;;;;;;10;81.02148;937.4771;;;;
2020/01/31 10:14:00;;;;;;;26.9;18.6;;;;;;;9.62;82.4873;937.4384;;;;
2020/01/31 10:17:16;;;;;;;32.4;23.7;;;;;;;9.61;83.55762;937.3398;;;;
2020/01/31 10:19:49;;;;;;;35.5;23;;;;;;;9.87;83.64258;937.3311;;;;
2020/01/31 10:22:18;;;;;;;32.4;20.3;;;;;;;10;83.04004;937.3713;;;;
2020/01/31 10:24:56;;;;;;;22.3;15.8;;;;;;;10.04;83.62891;937.3537;;;;
2020/01/31 10:27:32;;;;;;;12.9;8.8;;;;;;;10.28;81.85059;937.3175;;;;
2020/01/31 10:30:22;;;;;;;26.8;9.2;;;;;;;10.54;80.84961;937.2977;;;;
2020/01/31 10:33:15;;;;;;;2.7;1.4;;;;;;;11.09;77.28223;937.0361;;;;
2020/01/31 10:35:25;;;;;;;43.1;13.6;;;;;;;11.34;76.84766;937.0416;;;;
2020/01/31 10:38:02;;;;;;;33.4;14.4;;;;;;;11.68;73.67871;936.954;;;;
2020/01/31 10:40:38;;;;;;;1.8;0.7;;;;;;;11.97;72.63867;936.941;;;;
2020/01/31 10:43:04;;;;;;;5.7;2.9;;;;;;;12.09;72.23438;936.8569;;;;
2020/01/31 10:45:38;;;;;;;15.5;6;;;;;;;12.09;74.19434;936.8058;;;;
2020/01/31 10:48:11;;;;;;;19.7;8.1;;;;;;;11.81;74.79883;936.8566;;;;
2020/01/31 10:50:44;;;;;;;3.4;1.6;;;;;;;11.76;73.93262;936.8499;;;;
2020/01/31 10:53:22;;;;;;;4.1;1.6;;;;;;;11.94;73.41211;936.8284;;;;
2020/01/31 10:55:41;;;;;;;7.7;3.4;;;;;;;11.73;74.17969;936.7756;;;;
2020/01/31 10:58:11;;;;;;;2.8;1.2;;;;;;;12.01;72.62402;936.7584;;;;
2020/01/31 11:00:45;;;;;;;6.3;2;;;;;;;12.08;72.59961;936.7747;;;;
2020/01/31 11:03:17;;;;;;;5.7;2.4;;;;;;;12.15;71.78809;936.655;;;;
2020/01/31 11:08:26;;;;;;;6.1;2.7;;;;;;;12.41;70.11035;936.6697;;;;
2020/01/31 11:10:59;;;;;;;2.9;1.6;;;;;;;12.42;70.91406;936.5822;;;;
2020/01/31 11:13:18;;;;;;;3.5;1;;;;;;;12.46;68.19238;936.5829;;;;
2020/01/31 11:15:43;;;;;;;3;1.2;;;;;;;12.34;70.95801;936.5906;;;;
2020/01/31 11:18:08;;;;;;;4.9;1.4;;;;;;;12.37;70.17188;936.419;;;;
2020/01/31 11:20:40;;;;;;;3.5;1.6;;;;;;;12.52;71.01074;936.5374;;;;
2020/01/31 11:23:11;;;;;;;6.3;3;;;;;;;12.7;70.90234;936.5151;;;;
2020/01/31 11:26:06;;;;;;;4.2;3;;;;;;;12.9;70.26953;936.3695;;;;
2020/01/31 11:32:14;;;;;;;3.2;2.4;;;;;;;13;69.90625;936.3389;;;;
2020/01/31 11:33:55;;;;;;;4.9;2.2;;;;;;;13.2;69.69727;936.4211;;;;
2020/01/31 11:36:31;;;;;;;3.1;2.1;;;;;;;13.26;67.45508;936.3148;;;;
2020/01/31 11:38:56;;;;;;;3.8;2;;;;;;;13.4;67.53516;936.3518;;;;
2020/01/31 11:41:24;;;;;;;3.9;1.7;;;;;;;13.54;65.98047;936.3434;;;;
2020/01/31 11:44:15;;;;;;;2.4;1.1;;;;;;;13.71;65.10938;936.3508;;;;
2020/01/31 11:46:52;;;;;;;3.6;2;;;;;;;13.48;65.51172;936.2933;;;;
2020/01/31 11:49:26;;;;;;;4.2;2;;;;;;;13.69;67.25781;936.3261;;;;
2020/01/31 11:51:58;;;;;;;6;2;;;;;;;13.91;69.22461;936.205;;;;
2020/01/31 11:54:29;;;;;;;4;1.8;;;;;;;14.17;65.27051;936.2466;;;;
2020/01/31 11:57:04;;;;;;;3.5;1.7;;;;;;;14.64;65.62793;936.1036;;;;
2020/01/31 11:59:45;;;;;;;2.3;1.5;;;;;;;16.5;56.60156;936.106;;;;
2020/01/31 12:02:12;;;;;;;3.5;1.8;;;;;;;20.26;47.45703;936.0253;;;;
2020/01/31 12:04:46;;;;;;;2.5;1.7;;;;;;;21.84;41.5918;936.0336;;;;
2020/01/31 12:07:25;;;;;;;3.8;1.4;;;;;;;24.29;36.89648;935.973;;;;
2020/01/31 12:09:51;;;;;;;2.1;1.1;;;;;;;25.65;33.47656;935.9911;;;;
2020/01/31 12:12:22;;;;;;;1.9;1.3;;;;;;;27.27;31.60449;935.823;;;;
2020/01/31 12:14:57;;;;;;;2.2;1.1;;;;;;;28.24;28.83301;935.7872;;;;
2020/01/31 12:17:25;;;;;;;4.5;1.4;;;;;;;29.91;28.02148;935.8558;;;;
2020/01/31 12:19:51;;;;;;;4.2;1.3;;;;;;;31.02;27.15723;935.8136;;;;
2020/01/31 12:22:23;;;;;;;3.1;1.2;;;;;;;30.7;25.94336;935.754;;;;
2020/01/31 12:27:22;;;;;;;1.9;1.4;;;;;;;32.52;23.82715;935.6877;;;;
2020/01/31 12:29:55;;;;;;;2.5;2;;;;;;;32.15;23.96387;935.6658;;;;
2020/01/31 12:32:27;;;;;;;3.4;1.7;;;;;;;29.78;26.8916;935.6588;;;;
2020/01/31 12:35:00;;;;;;;3.5;1.7;;;;;;;28.68;27.80176;935.5769;;;;
2020/01/31 12:37:24;;;;;;;2.6;1.2;;;;;;;29.47;26.74219;935.5978;;;;
2020/01/31 12:39:55;;;;;;;7.2;1.6;;;;;;;30.28;26.63574;935.6234;;;;
2020/01/31 12:42:20;;;;;;;2.3;1;;;;;;;29.9;24.94336;935.5674;;;;
2020/01/31 12:44:52;;;;;;;4;1.1;;;;;;;27.1;31.55762;935.6484;;;;
2020/01/31 12:47:20;;;;;;;4.1;1.3;;;;;;;26.91;31.50879;935.6395;;;;
2020/01/31 12:49:54;;;;;;;2.1;1.4;;;;;;;27.31;28.96289;935.4885;;;;
2020/01/31 12:52:20;;;;;;;1;0.5;;;;;;;24.96;31.44238;935.4988;;;;
2020/01/31 12:54:41;;;;;;;2.4;1.6;;;;;;;24.07;36.97266;935.5807;;;;
2020/01/31 12:57:09;;;;;;;3.3;1.6;;;;;;;24.37;36.40918;935.5804;;;;
2020/01/31 12:59:42;;;;;;;2.7;1.5;;;;;;;25.15;34.43066;935.5612;;;;
2020/01/31 13:02:04;;;;;;;4.6;3.6;;;;;;;27.02;31.61133;935.5198;;;;
2020/01/31 13:04:40;;;;;;;2.7;2.2;;;;;;;27.72;31.10352;935.592;;;;
2020/01/31 13:07:08;;;;;;;4.3;1.4;;;;;;;25.42;34.79395;935.6323;;;;
2020/01/31 13:10:45;;;;;;;2.5;1.2;;;;;;;23.89;36.08691;935.4772;;;;
2020/01/31 13:13:26;;;;;;;4.3;1.6;;;;;;;22.39;40.59961;935.5744;;;;
2020/01/31 13:16:13;;;;;;;6;1.3;;;;;;;21.22;44.08496;935.6724;;;;
2020/01/31 13:18:33;;;;;;;5.2;1.2;;;;;;;20.32;45.0918;935.6499;;;;
2020/01/31 13:21:05;;;;;;;10.6;8;;;;;;;20.29;46.30273;935.6467;;;;
2020/01/31 13:23:38;;;;;;;5.5;1.7;;;;;;;20.33;46.45996;935.7198;;;;
2020/01/31 13:26:07;;;;;;;7;4.6;;;;;;;20.62;44.30469;935.6277;;;;
2020/01/31 13:28:35;;;;;;;11.9;6;;;;;;;19.48;48.03711;935.6369;;;;
2020/01/31 13:31:08;;;;;;;4.5;2;;;;;;;18.59;48.84668;935.5836;;;;
2020/01/31 13:33:29;;;;;;;3.5;1.7;;;;;;;17.47;50.31152;935.5173;;;;
2020/01/31 13:35:59;;;;;;;7.3;2.5;;;;;;;17.16;53.84766;935.6711;;;;
2020/01/31 13:38:27;;;;;;;3.2;1.7;;;;;;;17.76;50.90332;935.5661;;;;
2020/01/31 13:40:56;;;;;;;5.2;2.4;;;;;;;18.87;48.4707;935.5594;;;;
2020/01/31 13:43:31;;;;;;;4.8;3;;;;;;;19.23;47.40332;935.5719;;;;
2020/01/31 13:45:57;;;;;;;9.3;2.7;;;;;;;19.76;48.7666;935.5839;;;;
2020/01/31 13:48:26;;;;;;;7.2;1.9;;;;;;;20.99;44.50586;935.5928;;;;
2020/01/31 13:51:23;;;;;;;6.4;2.1;;;;;;;22.65;41.30371;935.5799;;;;
2020/01/31 13:53:21;;;;;;;7.7;3.4;;;;;;;24.09;38.56543;935.5801;;;;
2020/01/31 13:55:51;;;;;;;7.2;2.6;;;;;;;24.51;36.63184;935.6443;;;;
2020/01/31 13:58:18;;;;;;;6.4;2.6;;;;;;;24.05;37.59473;935.6728;;;;
2020/01/31 14:00:43;;;;;;;8;3.4;;;;;;;24.14;38.42773;935.6438;;;;
2020/01/31 14:03:06;;;;;;;6.9;2.4;;;;;;;25.39;35.16895;935.6886;;;;
2020/01/31 14:05:31;;;;;;;5.7;2;;;;;;;26.82;33.03027;935.6426;;;;
2020/01/31 14:08:01;;;;;;;6.6;3;;;;;;;26.78;31.93848;935.645;;;;
2020/01/31 14:10:29;;;;;;;4.1;1.9;;;;;;;25.07;35.46289;935.7045;;;;
2020/01/31 14:13:14;;;;;;;3.9;1.7;;;;;;;24.69;37.26074;935.74;;;;
2020/01/31 14:15:44;;;;;;;3.9;1.9;;;;;;;24.65;35.52344;935.6549;;;;
2020/01/31 14:18:05;;;;;;;4.3;2.2;;;;;;;24.76;35.8623;935.7237;;;;
2020/01/31 14:20:31;;;;;;;5.3;2.8;;;;;;;24.59;36.13184;935.7772;;;;
2020/01/31 14:23:02;;;;;;;8;5.1;;;;;;;24;36.56738;935.6135;;;;
2020/01/31 14:25:26;;;;;;;4.1;2.9;;;;;;;23.15;37.6123;935.6969;;;;
2020/01/31 14:28:00;;;;;;;3.4;1.6;;;;;;;23.02;38.13086;935.702;;;;
2020/01/31 14:30:29;;;;;;;3.9;2.3;;;;;;;24.31;35.70898;935.7478;;;;
2020/01/31 14:32:52;;;;;;;5.8;2.3;;;;;;;25.46;34.98633;935.7928;;;;
2020/01/31 14:35:18;;;;;;;6;2.2;;;;;;;25.93;34.25391;935.8332;;;;
2020/01/31 14:37:49;;;;;;;5.8;4.3;;;;;;;26.42;32.25586;935.7834;;;;
2020/01/31 14:40:17;;;;;;;11.2;7.7;;;;;;;27.31;30.6709;935.7721;;;;
2020/01/31 14:42:41;;;;;;;8.2;6.3;;;;;;;28.18;28.76953;935.7278;;;;
2020/01/31 14:45:06;;;;;;;10.7;5.9;;;;;;;28.05;30.02051;935.8088;;;;
2020/01/31 14:47:31;;;;;;;8.9;6;;;;;;;27.97;29.11328;935.774;;;;
2020/01/31 14:50:13;;;;;;;8;5.6;;;;;;;27.7;29.26074;935.7428;;;;
2020/01/31 14:53:16;;;;;;;9.6;5.7;;;;;;;26.02;32.43945;935.8658;;;;
2020/01/31 14:55:37;;;;;;;8.9;5.3;;;;;;;24.23;34.81836;935.8304;;;;
2020/01/31 14:58:02;;;;;;;9.5;5;;;;;;;23.36;37.90137;935.8633;;;;
2020/01/31 15:00:31;;;;;;;6.9;4.2;;;;;;;23.03;37.66309;935.8219;;;;
2020/01/31 15:02:53;;;;;;;5.4;3.5;;;;;;;23.05;37.69922;935.8563;;;;
2020/01/31 15:05:20;;;;;;;4.3;2.8;;;;;;;23.26;36.6709;935.8492;;;;
2020/01/31 15:07:49;;;;;;;3.8;2.3;;;;;;;23.03;37.80371;935.8771;;;;
2020/01/31 15:10:13;;;;;;;6.3;2.5;;;;;;;22.51;39.00293;935.9489;;;;
2020/01/31 15:12:36;;;;;;;2.8;1.3;;;;;;;21.57;40.25488;935.8631;;;;
2020/01/31 15:15:02;;;;;;;2.4;1.4;;;;;;;19.87;44.46387;935.9396;;;;
2020/01/31 15:17:33;;;;;;;4.3;1.7;;;;;;;18.35;48.90234;935.9633;;;;
2020/01/31 15:19:57;;;;;;;7.1;2.3;;;;;;;17.11;52.24121;936.0567;;;;
2020/01/31 15:22:27;;;;;;;3.6;1.6;;;;;;;16.35;53.66699;936.0084;;;;
2020/01/31 15:24:50;;;;;;;7.1;2.5;;;;;;;15.56;57.17285;936.0669;;;;
2020/01/31 15:27:14;;;;;;;7.9;3;;;;;;;14.93;59.11035;936.08;;;;
2020/01/31 15:29:39;;;;;;;6.1;2.6;;;;;;;14.33;60.75586;936.1648;;;;
2020/01/31 15:32:06;;;;;;;7.7;3.2;;;;;;;14.04;61.84375;936.1644;;;;
2020/01/31 15:34:33;;;;;;;314.7;217.6;;;;;;;13.78;62.30078;936.0728;;;;
2020/01/31 15:36:55;;;;;;;126.5;83.6;;;;;;;13.53;63.47363;936.1587;;;;
2020/01/31 15:39:28;;;;;;;145.2;99.8;;;;;;;13.36;64.96484;936.1808;;;;
2020/01/31 15:42:01;;;;;;;19.1;11.8;;;;;;;12.89;66.45508;936.2545;;;;
2020/01/31 15:44:26;;;;;;;4.9;2.6;;;;;;;12.36;66.77637;936.2505;;;;
2020/01/31 15:47:21;;;;;;;6.7;2;;;;;;;12.04;68.44629;936.2742;;;;
2020/01/31 15:49:50;;;;;;;9;6.9;;;;;;;11.87;68.79688;936.2834;;;;
2020/01/31 15:52:21;;;;;;;11.6;6.4;;;;;;;11.92;68.1875;936.3641;;;;
2020/01/31 15:54:58;;;;;;;17.5;10.3;;;;;;;11.88;68.76465;936.3585;;;;
2020/01/31 15:57:27;;;;;;;29.2;18.3;;;;;;;11.76;67.96582;936.3999;;;;
2020/01/31 15:59:53;;;;;;;21;11.3;;;;;;;11.44;70.01172;936.5089;;;;
2020/01/31 16:02:15;;;;;;;13.1;7.6;;;;;;;11.21;70.46484;936.4645;;;;
2020/01/31 16:04:49;;;;;;;10.4;5.9;;;;;;;10.97;72.16309;936.5867;;;;
2020/01/31 16:07:14;;;;;;;10.4;7.2;;;;;;;10.8;72.04297;936.5631;;;;
2020/01/31 16:09:49;;;;;;;10.4;6.7;;;;;;;10.73;72.67188;936.6719;;;;
2020/01/31 16:12:20;;;;;;;17;13.8;;;;;;;10.37;72.39453;936.6824;;;;
2020/01/31 16:14:50;;;;;;;13.1;9.8;;;;;;;10.46;71.9873;936.7645;;;;
2020/01/31 16:17:21;;;;;;;15.5;11;;;;;;;10.34;72.18457;936.8151;;;;
2020/01/31 16:19:53;;;;;;;30.3;17.2;;;;;;;10.09;71.19531;936.7575;;;;
2020/01/31 16:22:28;;;;;;;19;10.5;;;;;;;9.98;71.54102;936.8;;;;
2020/01/31 16:24:51;;;;;;;19;11.6;;;;;;;9.81;72.53809;936.8776;;;;
2020/01/31 16:30:12;;;;;;;8.3;5.2;;;;;;;9.93;72.78613;936.945;;;;